sensor_id;sensor_type;location;lat;lon;timestamp;P1;durP1;ratioP1;P2;durP2;ratioP2
11313;SDS011;5712;48.858;9.206;2022-12-07T00:01:30;10.30;;;7.70;;
11313;SDS011;5712;48.858;9.206;2022-12-07T00:03:59;9.40;;;7.57;;
11313;SDS011;5712;48.858;9.206;2022-12-07T00:06:30;9.80;;;7.80;;
11313;SDS011;5712;48.858;9.206;2022-12-07T00:08:57;9.87;;;7.10;;
11313;SDS011;5712;48.858;9.206;2022-12-07T00:11:25;9.33;;;7.20;;
11313;SDS011;5712;48.858;9.206;2022-12-07T00:13:52;10.77;;;8.07;;
11313;SDS011;5712;48.858;9.206;2022-12-07T00:16:21;11.27;;;8.20;;
11313;SDS011;5712;48.858;9.206;2022-12-07T00:18:49;9.70;;;7.77;;
11313;SDS011;5712;48.858;9.206;2022-12-07T00:21:16;10.50;;;7.70;;
11313;SDS011;5712;48.858;9.206;2022-12-07T00:23:44;10.57;;;7.43;;
11313;SDS011;5712;48.858;9.206;2022-12-07T00:26:12;10.73;;;7.83;;
11313;SDS011;5712;48.858;9.206;2022-12-07T00:28:41;9.87;;;7.83;;
11313;SDS011;5712;48.858;9.206;2022-12-07T00:31:12;12.37;;;7.53;;
11313;SDS011;5712;48.858;9.206;2022-12-07T00:33:40;10.80;;;8.30;;
11313;SDS011;5712;48.858;9.206;2022-12-07T00:36:07;10.77;;;7.83;;
11313;SDS011;5712;48.858;9.206;2022-12-07T00:38:35;12.20;;;7.97;;
11313;SDS011;5712;48.858;9.206;2022-12-07T00:41:03;9.50;;;7.03;;
11313;SDS011;5712;48.858;9.206;2022-12-07T00:43:31;11.17;;;8.03;;
11313;SDS011;5712;48.858;9.206;2022-12-07T00:45:59;11.47;;;8.17;;
11313;SDS011;5712;48.858;9.206;2022-12-07T00:48:26;8.87;;;6.87;;
11313;SDS011;5712;48.858;9.206;2022-12-07T00:50:53;9.87;;;7.40;;
11313;SDS011;5712;48.858;9.206;2022-12-07T00:53:19;11.53;;;8.23;;
11313;SDS011;5712;48.858;9.206;2022-12-07T00:55:46;10.93;;;8.20;;
11313;SDS011;5712;48.858;9.206;2022-12-07T00:58:13;10.27;;;8.00;;
11313;SDS011;5712;48.858;9.206;2022-12-07T01:00:40;10.47;;;8.20;;
11313;SDS011;5712;48.858;9.206;2022-12-07T01:03:10;11.17;;;8.10;;
11313;SDS011;5712;48.858;9.206;2022-12-07T01:05:38;12.87;;;8.57;;
11313;SDS011;5712;48.858;9.206;2022-12-07T01:08:06;11.47;;;8.47;;
11313;SDS011;5712;48.858;9.206;2022-12-07T01:10:32;10.93;;;7.83;;
11313;SDS011;5712;48.858;9.206;2022-12-07T01:12:59;12.73;;;8.80;;
11313;SDS011;5712;48.858;9.206;2022-12-07T01:15:25;10.33;;;8.10;;
11313;SDS011;5712;48.858;9.206;2022-12-07T01:17:52;11.57;;;8.57;;
11313;SDS011;5712;48.858;9.206;2022-12-07T01:20:21;11.50;;;7.83;;
11313;SDS011;5712;48.858;9.206;2022-12-07T01:22:47;12.43;;;8.13;;
11313;SDS011;5712;48.858;9.206;2022-12-07T01:25:14;13.17;;;8.57;;
11313;SDS011;5712;48.858;9.206;2022-12-07T01:27:41;14.00;;;8.00;;
11313;SDS011;5712;48.858;9.206;2022-12-07T01:30:09;11.73;;;8.20;;
11313;SDS011;5712;48.858;9.206;2022-12-07T01:32:36;12.30;;;7.80;;
11313;SDS011;5712;48.858;9.206;2022-12-07T01:35:03;11.13;;;7.90;;
11313;SDS011;5712;48.858;9.206;2022-12-07T01:37:34;10.40;;;8.37;;
11313;SDS011;5712;48.858;9.206;2022-12-07T01:40:02;12.23;;;7.73;;
11313;SDS011;5712;48.858;9.206;2022-12-07T01:42:29;11.37;;;8.30;;
11313;SDS011;5712;48.858;9.206;2022-12-07T01:45:31;12.10;;;8.57;;
11313;SDS011;5712;48.858;9.206;2022-12-07T01:48:04;12.07;;;7.60;;
11313;SDS011;5712;48.858;9.206;2022-12-07T01:50:34;10.23;;;7.40;;
11313;SDS011;5712;48.858;9.206;2022-12-07T01:53:03;10.43;;;7.43;;
11313;SDS011;5712;48.858;9.206;2022-12-07T01:55:33;11.30;;;7.63;;
11313;SDS011;5712;48.858;9.206;2022-12-07T01:58:03;10.80;;;7.23;;
11313;SDS011;5712;48.858;9.206;2022-12-07T02:00:30;12.97;;;8.17;;
11313;SDS011;5712;48.858;9.206;2022-12-07T02:02:57;10.80;;;7.60;;
11313;SDS011;5712;48.858;9.206;2022-12-07T02:05:30;11.73;;;8.27;;
11313;SDS011;5712;48.858;9.206;2022-12-07T02:07:58;12.27;;;8.50;;
11313;SDS011;5712;48.858;9.206;2022-12-07T02:10:27;13.10;;;8.37;;
11313;SDS011;5712;48.858;9.206;2022-12-07T02:12:56;12.03;;;8.07;;
11313;SDS011;5712;48.858;9.206;2022-12-07T02:15:27;10.17;;;8.37;;
11313;SDS011;5712;48.858;9.206;2022-12-07T02:18:00;11.07;;;8.30;;
11313;SDS011;5712;48.858;9.206;2022-12-07T02:20:33;12.57;;;7.87;;
11313;SDS011;5712;48.858;9.206;2022-12-07T02:23:20;13.33;;;8.50;;
11313;SDS011;5712;48.858;9.206;2022-12-07T02:26:06;10.23;;;7.63;;
11313;SDS011;5712;48.858;9.206;2022-12-07T02:28:55;13.07;;;8.70;;
11313;SDS011;5712;48.858;9.206;2022-12-07T02:31:36;11.13;;;8.43;;
11313;SDS011;5712;48.858;9.206;2022-12-07T02:34:08;10.77;;;8.00;;
11313;SDS011;5712;48.858;9.206;2022-12-07T02:36:39;11.37;;;8.13;;
11313;SDS011;5712;48.858;9.206;2022-12-07T02:39:08;11.17;;;7.77;;
11313;SDS011;5712;48.858;9.206;2022-12-07T02:41:43;12.73;;;8.90;;
11313;SDS011;5712;48.858;9.206;2022-12-07T02:44:15;10.93;;;7.80;;
11313;SDS011;5712;48.858;9.206;2022-12-07T02:46:46;13.60;;;8.40;;
11313;SDS011;5712;48.858;9.206;2022-12-07T02:49:18;11.43;;;7.53;;
11313;SDS011;5712;48.858;9.206;2022-12-07T02:51:47;11.40;;;8.00;;
11313;SDS011;5712;48.858;9.206;2022-12-07T02:54:17;10.47;;;8.13;;
11313;SDS011;5712;48.858;9.206;2022-12-07T02:56:45;11.43;;;7.53;;
11313;SDS011;5712;48.858;9.206;2022-12-07T02:59:20;13.27;;;7.87;;
11313;SDS011;5712;48.858;9.206;2022-12-07T03:01:58;11.20;;;8.17;;
11313;SDS011;5712;48.858;9.206;2022-12-07T03:04:39;13.17;;;8.10;;
11313;SDS011;5712;48.858;9.206;2022-12-07T03:07:15;10.80;;;7.97;;
11313;SDS011;5712;48.858;9.206;2022-12-07T03:09:51;10.17;;;7.30;;
11313;SDS011;5712;48.858;9.206;2022-12-07T03:12:28;9.70;;;7.63;;
11313;SDS011;5712;48.858;9.206;2022-12-07T03:15:01;11.37;;;7.83;;
11313;SDS011;5712;48.858;9.206;2022-12-07T03:17:32;11.00;;;7.27;;
11313;SDS011;5712;48.858;9.206;2022-12-07T03:20:02;10.47;;;7.67;;
11313;SDS011;5712;48.858;9.206;2022-12-07T03:22:33;13.37;;;7.43;;
11313;SDS011;5712;48.858;9.206;2022-12-07T03:25:02;12.43;;;7.50;;
11313;SDS011;5712;48.858;9.206;2022-12-07T03:27:32;11.43;;;7.43;;
11313;SDS011;5712;48.858;9.206;2022-12-07T03:30:03;10.77;;;7.83;;
11313;SDS011;5712;48.858;9.206;2022-12-07T03:32:33;11.27;;;8.00;;
11313;SDS011;5712;48.858;9.206;2022-12-07T03:35:04;9.87;;;7.37;;
11313;SDS011;5712;48.858;9.206;2022-12-07T03:37:39;12.63;;;7.53;;
11313;SDS011;5712;48.858;9.206;2022-12-07T03:40:12;12.87;;;8.47;;
11313;SDS011;5712;48.858;9.206;2022-12-07T03:42:42;11.07;;;7.80;;
11313;SDS011;5712;48.858;9.206;2022-12-07T03:45:10;9.97;;;7.07;;
11313;SDS011;5712;48.858;9.206;2022-12-07T03:47:41;12.17;;;8.63;;
11313;SDS011;5712;48.858;9.206;2022-12-07T03:50:13;12.27;;;8.33;;
11313;SDS011;5712;48.858;9.206;2022-12-07T03:52:45;11.00;;;7.83;;
11313;SDS011;5712;48.858;9.206;2022-12-07T03:55:18;10.10;;;7.50;;
11313;SDS011;5712;48.858;9.206;2022-12-07T03:57:51;11.87;;;8.03;;
11313;SDS011;5712;48.858;9.206;2022-12-07T04:00:21;12.30;;;8.40;;
11313;SDS011;5712;48.858;9.206;2022-12-07T04:02:50;11.57;;;7.63;;
11313;SDS011;5712;48.858;9.206;2022-12-07T04:05:18;13.60;;;9.40;;
11313;SDS011;5712;48.858;9.206;2022-12-07T04:07:44;11.97;;;8.07;;
11313;SDS011;5712;48.858;9.206;2022-12-07T04:10:11;11.67;;;7.57;;
11313;SDS011;5712;48.858;9.206;2022-12-07T04:12:38;12.70;;;8.10;;
11313;SDS011;5712;48.858;9.206;2022-12-07T04:15:05;12.50;;;8.50;;
11313;SDS011;5712;48.858;9.206;2022-12-07T04:17:34;14.27;;;8.77;;
11313;SDS011;5712;48.858;9.206;2022-12-07T04:20:01;13.87;;;8.77;;
11313;SDS011;5712;48.858;9.206;2022-12-07T04:22:28;14.07;;;8.97;;
11313;SDS011;5712;48.858;9.206;2022-12-07T04:24:55;13.20;;;8.67;;
11313;SDS011;5712;48.858;9.206;2022-12-07T04:27:21;13.90;;;8.87;;
11313;SDS011;5712;48.858;9.206;2022-12-07T04:29:48;13.23;;;8.33;;
11313;SDS011;5712;48.858;9.206;2022-12-07T04:32:14;12.83;;;8.83;;
11313;SDS011;5712;48.858;9.206;2022-12-07T04:34:42;13.87;;;8.33;;
11313;SDS011;5712;48.858;9.206;2022-12-07T04:37:09;12.97;;;8.33;;
11313;SDS011;5712;48.858;9.206;2022-12-07T04:39:35;12.27;;;8.47;;
11313;SDS011;5712;48.858;9.206;2022-12-07T04:42:02;10.30;;;7.60;;
11313;SDS011;5712;48.858;9.206;2022-12-07T04:44:29;13.37;;;7.97;;
11313;SDS011;5712;48.858;9.206;2022-12-07T04:46:55;12.13;;;7.90;;
11313;SDS011;5712;48.858;9.206;2022-12-07T04:49:23;11.37;;;7.93;;
11313;SDS011;5712;48.858;9.206;2022-12-07T04:51:51;11.77;;;7.53;;
11313;SDS011;5712;48.858;9.206;2022-12-07T04:54:18;10.70;;;6.83;;
11313;SDS011;5712;48.858;9.206;2022-12-07T04:56:45;11.60;;;6.63;;
11313;SDS011;5712;48.858;9.206;2022-12-07T04:59:12;12.03;;;7.57;;
11313;SDS011;5712;48.858;9.206;2022-12-07T05:01:40;12.17;;;8.43;;
11313;SDS011;5712;48.858;9.206;2022-12-07T05:04:07;12.57;;;8.07;;
11313;SDS011;5712;48.858;9.206;2022-12-07T05:06:34;11.67;;;7.97;;
11313;SDS011;5712;48.858;9.206;2022-12-07T05:09:03;12.30;;;7.73;;
11313;SDS011;5712;48.858;9.206;2022-12-07T05:11:30;13.87;;;8.07;;
11313;SDS011;5712;48.858;9.206;2022-12-07T05:14:06;12.07;;;7.77;;
11313;SDS011;5712;48.858;9.206;2022-12-07T05:16:35;12.90;;;8.80;;
11313;SDS011;5712;48.858;9.206;2022-12-07T05:19:02;13.67;;;7.90;;
11313;SDS011;5712;48.858;9.206;2022-12-07T05:21:29;10.10;;;7.23;;
11313;SDS011;5712;48.858;9.206;2022-12-07T05:23:55;10.90;;;7.63;;
11313;SDS011;5712;48.858;9.206;2022-12-07T05:26:23;12.70;;;8.13;;
11313;SDS011;5712;48.858;9.206;2022-12-07T05:28:50;12.13;;;8.23;;
11313;SDS011;5712;48.858;9.206;2022-12-07T05:31:17;14.67;;;8.90;;
11313;SDS011;5712;48.858;9.206;2022-12-07T05:33:44;12.17;;;8.23;;
11313;SDS011;5712;48.858;9.206;2022-12-07T05:36:10;13.73;;;8.53;;
11313;SDS011;5712;48.858;9.206;2022-12-07T05:38:37;12.27;;;8.57;;
11313;SDS011;5712;48.858;9.206;2022-12-07T05:41:05;14.27;;;8.30;;
11313;SDS011;5712;48.858;9.206;2022-12-07T05:43:34;13.00;;;8.23;;
11313;SDS011;5712;48.858;9.206;2022-12-07T05:45:59;13.93;;;8.80;;
11313;SDS011;5712;48.858;9.206;2022-12-07T05:48:26;12.53;;;8.17;;
11313;SDS011;5712;48.858;9.206;2022-12-07T05:50:52;13.20;;;8.70;;
11313;SDS011;5712;48.858;9.206;2022-12-07T05:53:19;13.27;;;8.20;;
11313;SDS011;5712;48.858;9.206;2022-12-07T05:55:46;12.63;;;8.33;;
11313;SDS011;5712;48.858;9.206;2022-12-07T05:58:12;13.60;;;8.17;;
11313;SDS011;5712;48.858;9.206;2022-12-07T06:00:58;12.30;;;7.57;;
11313;SDS011;5712;48.858;9.206;2022-12-07T06:03:24;10.87;;;7.50;;
11313;SDS011;5712;48.858;9.206;2022-12-07T06:05:51;12.43;;;7.90;;
11313;SDS011;5712;48.858;9.206;2022-12-07T06:08:18;13.63;;;9.10;;
11313;SDS011;5712;48.858;9.206;2022-12-07T06:10:46;12.30;;;8.30;;
11313;SDS011;5712;48.858;9.206;2022-12-07T06:13:34;13.07;;;8.53;;
11313;SDS011;5712;48.858;9.206;2022-12-07T06:16:02;12.70;;;8.27;;
11313;SDS011;5712;48.858;9.206;2022-12-07T06:18:28;10.43;;;7.50;;
11313;SDS011;5712;48.858;9.206;2022-12-07T06:20:55;11.47;;;8.00;;
11313;SDS011;5712;48.858;9.206;2022-12-07T06:23:21;12.07;;;8.33;;
11313;SDS011;5712;48.858;9.206;2022-12-07T06:25:48;13.37;;;8.03;;
11313;SDS011;5712;48.858;9.206;2022-12-07T06:28:14;11.53;;;7.77;;
11313;SDS011;5712;48.858;9.206;2022-12-07T06:30:41;11.20;;;7.50;;
11313;SDS011;5712;48.858;9.206;2022-12-07T06:33:08;9.97;;;7.20;;
11313;SDS011;5712;48.858;9.206;2022-12-07T06:35:35;13.10;;;7.47;;
11313;SDS011;5712;48.858;9.206;2022-12-07T06:38:01;10.60;;;7.00;;
11313;SDS011;5712;48.858;9.206;2022-12-07T06:40:28;9.97;;;7.37;;
11313;SDS011;5712;48.858;9.206;2022-12-07T06:42:54;10.23;;;7.33;;
11313;SDS011;5712;48.858;9.206;2022-12-07T06:45:21;10.73;;;7.60;;
11313;SDS011;5712;48.858;9.206;2022-12-07T06:47:48;12.57;;;7.73;;
11313;SDS011;5712;48.858;9.206;2022-12-07T06:50:16;11.13;;;8.00;;
11313;SDS011;5712;48.858;9.206;2022-12-07T06:52:42;10.67;;;7.03;;
11313;SDS011;5712;48.858;9.206;2022-12-07T06:55:09;9.90;;;7.03;;
11313;SDS011;5712;48.858;9.206;2022-12-07T06:57:35;11.30;;;7.27;;
11313;SDS011;5712;48.858;9.206;2022-12-07T07:00:02;12.13;;;7.37;;
11313;SDS011;5712;48.858;9.206;2022-12-07T07:02:29;10.87;;;7.67;;
11313;SDS011;5712;48.858;9.206;2022-12-07T07:04:56;9.10;;;6.47;;
11313;SDS011;5712;48.858;9.206;2022-12-07T07:07:24;9.47;;;6.47;;
11313;SDS011;5712;48.858;9.206;2022-12-07T07:09:50;8.77;;;6.00;;
11313;SDS011;5712;48.858;9.206;2022-12-07T07:12:17;10.80;;;7.23;;
11313;SDS011;5712;48.858;9.206;2022-12-07T07:14:43;11.60;;;7.00;;
11313;SDS011;5712;48.858;9.206;2022-12-07T07:17:10;10.20;;;6.30;;
11313;SDS011;5712;48.858;9.206;2022-12-07T07:19:36;9.97;;;6.50;;
11313;SDS011;5712;48.858;9.206;2022-12-07T07:22:03;9.67;;;6.77;;
11313;SDS011;5712;48.858;9.206;2022-12-07T07:24:31;10.60;;;7.63;;
11313;SDS011;5712;48.858;9.206;2022-12-07T07:26:58;12.17;;;7.70;;
11313;SDS011;5712;48.858;9.206;2022-12-07T07:29:24;11.17;;;7.47;;
11313;SDS011;5712;48.858;9.206;2022-12-07T07:31:50;9.13;;;6.40;;
11313;SDS011;5712;48.858;9.206;2022-12-07T07:34:17;8.87;;;6.13;;
11313;SDS011;5712;48.858;9.206;2022-12-07T07:36:44;9.33;;;6.50;;
11313;SDS011;5712;48.858;9.206;2022-12-07T07:39:10;9.10;;;6.70;;
11313;SDS011;5712;48.858;9.206;2022-12-07T07:41:39;8.83;;;6.60;;
11313;SDS011;5712;48.858;9.206;2022-12-07T07:44:05;8.83;;;6.17;;
11313;SDS011;5712;48.858;9.206;2022-12-07T07:46:32;8.00;;;6.17;;
11313;SDS011;5712;48.858;9.206;2022-12-07T07:48:58;8.43;;;5.77;;
11313;SDS011;5712;48.858;9.206;2022-12-07T07:51:25;10.10;;;5.93;;
11313;SDS011;5712;48.858;9.206;2022-12-07T07:53:51;8.47;;;5.73;;
11313;SDS011;5712;48.858;9.206;2022-12-07T07:56:18;8.50;;;5.27;;
11313;SDS011;5712;48.858;9.206;2022-12-07T07:58:46;6.63;;;4.87;;
11313;SDS011;5712;48.858;9.206;2022-12-07T08:01:12;8.30;;;5.53;;
11313;SDS011;5712;48.858;9.206;2022-12-07T08:03:40;8.23;;;5.47;;
11313;SDS011;5712;48.858;9.206;2022-12-07T08:06:06;10.23;;;5.43;;
11313;SDS011;5712;48.858;9.206;2022-12-07T08:08:33;6.60;;;4.57;;
11313;SDS011;5712;48.858;9.206;2022-12-07T08:10:59;6.67;;;4.77;;
11313;SDS011;5712;48.858;9.206;2022-12-07T08:13:26;8.30;;;5.30;;
11313;SDS011;5712;48.858;9.206;2022-12-07T08:15:54;8.50;;;5.67;;
11313;SDS011;5712;48.858;9.206;2022-12-07T08:18:20;7.30;;;4.97;;
11313;SDS011;5712;48.858;9.206;2022-12-07T08:20:47;6.90;;;4.70;;
11313;SDS011;5712;48.858;9.206;2022-12-07T08:23:13;8.70;;;5.00;;
11313;SDS011;5712;48.858;9.206;2022-12-07T08:25:40;7.63;;;4.77;;
11313;SDS011;5712;48.858;9.206;2022-12-07T08:28:06;6.30;;;4.43;;
11313;SDS011;5712;48.858;9.206;2022-12-07T08:30:33;7.83;;;5.37;;
11313;SDS011;5712;48.858;9.206;2022-12-07T08:33:01;6.77;;;4.60;;
11313;SDS011;5712;48.858;9.206;2022-12-07T08:35:28;6.23;;;4.63;;
11313;SDS011;5712;48.858;9.206;2022-12-07T08:37:54;8.23;;;4.90;;
11313;SDS011;5712;48.858;9.206;2022-12-07T08:40:22;6.77;;;5.13;;
11313;SDS011;5712;48.858;9.206;2022-12-07T08:42:49;7.17;;;5.00;;
11313;SDS011;5712;48.858;9.206;2022-12-07T10:59:50;4.63;;;3.50;;
11313;SDS011;5712;48.858;9.206;2022-12-07T11:02:32;4.63;;;3.03;;
11313;SDS011;5712;48.858;9.206;2022-12-07T11:05:12;4.50;;;3.33;;
11313;SDS011;5712;48.858;9.206;2022-12-07T11:07:47;5.20;;;3.67;;
11313;SDS011;5712;48.858;9.206;2022-12-07T11:10:24;6.13;;;3.80;;
11313;SDS011;5712;48.858;9.206;2022-12-07T11:12:59;5.70;;;3.83;;
11313;SDS011;5712;48.858;9.206;2022-12-07T11:15:42;5.77;;;4.10;;
11313;SDS011;5712;48.858;9.206;2022-12-07T11:18:22;4.87;;;3.57;;
11313;SDS011;5712;48.858;9.206;2022-12-07T11:21:09;5.03;;;3.73;;
11313;SDS011;5712;48.858;9.206;2022-12-07T11:23:48;4.97;;;3.77;;
11313;SDS011;5712;48.858;9.206;2022-12-07T11:26:29;6.60;;;3.70;;
11313;SDS011;5712;48.858;9.206;2022-12-07T11:29:21;6.10;;;3.70;;
11313;SDS011;5712;48.858;9.206;2022-12-07T11:32:00;4.43;;;3.83;;
11313;SDS011;5712;48.858;9.206;2022-12-07T11:34:37;8.43;;;4.53;;
11313;SDS011;5712;48.858;9.206;2022-12-07T11:37:12;6.77;;;4.90;;
11313;SDS011;5712;48.858;9.206;2022-12-07T11:39:46;6.17;;;4.67;;
11313;SDS011;5712;48.858;9.206;2022-12-07T11:42:19;8.30;;;5.43;;
11313;SDS011;5712;48.858;9.206;2022-12-07T11:44:50;8.70;;;5.30;;
11313;SDS011;5712;48.858;9.206;2022-12-07T11:47:23;8.53;;;5.73;;
11313;SDS011;5712;48.858;9.206;2022-12-07T11:50:01;9.50;;;5.17;;
11313;SDS011;5712;48.858;9.206;2022-12-07T11:52:45;8.97;;;6.27;;
11313;SDS011;5712;48.858;9.206;2022-12-07T11:55:18;8.27;;;6.00;;
11313;SDS011;5712;48.858;9.206;2022-12-07T11:57:50;8.93;;;6.37;;
11313;SDS011;5712;48.858;9.206;2022-12-07T12:00:22;8.97;;;6.13;;
11313;SDS011;5712;48.858;9.206;2022-12-07T12:02:51;8.97;;;5.93;;
11313;SDS011;5712;48.858;9.206;2022-12-07T12:05:23;8.50;;;5.43;;
11313;SDS011;5712;48.858;9.206;2022-12-07T12:07:53;9.37;;;6.13;;
11313;SDS011;5712;48.858;9.206;2022-12-07T12:10:29;8.07;;;6.30;;
11313;SDS011;5712;48.858;9.206;2022-12-07T12:13:20;10.43;;;5.70;;
11313;SDS011;5712;48.858;9.206;2022-12-07T12:16:03;9.00;;;6.40;;
11313;SDS011;5712;48.858;9.206;2022-12-07T12:18:46;7.93;;;5.93;;
11313;SDS011;5712;48.858;9.206;2022-12-07T12:21:28;6.97;;;5.07;;
11313;SDS011;5712;48.858;9.206;2022-12-07T12:23:58;9.67;;;6.57;;
11313;SDS011;5712;48.858;9.206;2022-12-07T12:26:27;9.33;;;5.90;;
11313;SDS011;5712;48.858;9.206;2022-12-07T12:28:59;8.63;;;5.67;;
11313;SDS011;5712;48.858;9.206;2022-12-07T12:31:31;7.17;;;5.53;;
11313;SDS011;5712;48.858;9.206;2022-12-07T12:34:03;8.03;;;5.90;;
11313;SDS011;5712;48.858;9.206;2022-12-07T12:36:51;6.23;;;5.07;;
11313;SDS011;5712;48.858;9.206;2022-12-07T12:39:20;7.63;;;5.60;;
11313;SDS011;5712;48.858;9.206;2022-12-07T12:41:52;8.10;;;5.40;;
11313;SDS011;5712;48.858;9.206;2022-12-07T12:47:38;7.43;;;5.43;;
11313;SDS011;5712;48.858;9.206;2022-12-07T12:50:31;6.90;;;5.00;;
11313;SDS011;5712;48.858;9.206;2022-12-07T12:53:20;8.40;;;5.10;;
11313;SDS011;5712;48.858;9.206;2022-12-07T13:02:09;11.63;;;6.63;;
11313;SDS011;5712;48.858;9.206;2022-12-07T13:10:22;8.40;;;6.23;;
11313;SDS011;5712;48.858;9.206;2022-12-07T13:12:57;12.50;;;6.50;;
11313;SDS011;5712;48.858;9.206;2022-12-07T13:15:36;9.37;;;6.47;;
11313;SDS011;5712;48.858;9.206;2022-12-07T13:18:22;9.53;;;6.77;;
11313;SDS011;5712;48.858;9.206;2022-12-07T13:20:51;9.40;;;6.80;;
11313;SDS011;5712;48.858;9.206;2022-12-07T13:23:26;8.67;;;7.07;;
11313;SDS011;5712;48.858;9.206;2022-12-07T13:26:01;7.90;;;6.37;;
11313;SDS011;5712;48.858;9.206;2022-12-07T13:28:39;9.37;;;6.80;;
11313;SDS011;5712;48.858;9.206;2022-12-07T13:31:11;12.43;;;7.20;;
11313;SDS011;5712;48.858;9.206;2022-12-07T13:33:43;8.70;;;6.70;;
11313;SDS011;5712;48.858;9.206;2022-12-07T13:36:12;11.23;;;7.03;;
11313;SDS011;5712;48.858;9.206;2022-12-07T13:38:49;13.10;;;9.32;;
11313;SDS011;5712;48.858;9.206;2022-12-07T13:41:19;11.73;;;8.40;;
11313;SDS011;5712;48.858;9.206;2022-12-07T13:43:52;11.17;;;7.47;;
11313;SDS011;5712;48.858;9.206;2022-12-07T13:46:26;10.47;;;8.10;;
11313;SDS011;5712;48.858;9.206;2022-12-07T13:49:01;11.80;;;8.23;;
11313;SDS011;5712;48.858;9.206;2022-12-07T13:51:38;11.10;;;7.57;;
11313;SDS011;5712;48.858;9.206;2022-12-07T13:54:08;12.77;;;7.97;;
11313;SDS011;5712;48.858;9.206;2022-12-07T13:56:39;11.70;;;7.70;;
11313;SDS011;5712;48.858;9.206;2022-12-07T13:59:07;12.07;;;8.17;;
11313;SDS011;5712;48.858;9.206;2022-12-07T14:01:55;11.87;;;7.60;;
11313;SDS011;5712;48.858;9.206;2022-12-07T14:04:30;12.00;;;7.50;;
11313;SDS011;5712;48.858;9.206;2022-12-07T14:07:19;11.57;;;7.20;;
11313;SDS011;5712;48.858;9.206;2022-12-07T14:09:54;12.83;;;7.90;;
11313;SDS011;5712;48.858;9.206;2022-12-07T14:12:23;9.93;;;6.97;;
11313;SDS011;5712;48.858;9.206;2022-12-07T14:14:54;10.40;;;7.43;;
11313;SDS011;5712;48.858;9.206;2022-12-07T14:17:23;9.97;;;7.00;;
11313;SDS011;5712;48.858;9.206;2022-12-07T14:19:51;12.47;;;8.10;;
11313;SDS011;5712;48.858;9.206;2022-12-07T14:22:22;11.37;;;7.97;;
11313;SDS011;5712;48.858;9.206;2022-12-07T14:25:00;11.90;;;8.20;;
11313;SDS011;5712;48.858;9.206;2022-12-07T14:27:49;12.63;;;8.37;;
11313;SDS011;5712;48.858;9.206;2022-12-07T14:30:18;13.60;;;8.47;;
11313;SDS011;5712;48.858;9.206;2022-12-07T14:32:45;12.40;;;8.27;;
11313;SDS011;5712;48.858;9.206;2022-12-07T14:35:18;14.97;;;8.63;;
11313;SDS011;5712;48.858;9.206;2022-12-07T14:37:47;13.80;;;8.30;;
11313;SDS011;5712;48.858;9.206;2022-12-07T14:40:16;13.47;;;8.93;;
11313;SDS011;5712;48.858;9.206;2022-12-07T14:42:44;15.80;;;9.30;;
11313;SDS011;5712;48.858;9.206;2022-12-07T14:45:15;15.93;;;8.97;;
11313;SDS011;5712;48.858;9.206;2022-12-07T14:47:43;18.93;;;9.73;;
11313;SDS011;5712;48.858;9.206;2022-12-07T14:50:11;14.10;;;8.93;;
11313;SDS011;5712;48.858;9.206;2022-12-07T14:52:38;10.93;;;7.53;;
11313;SDS011;5712;48.858;9.206;2022-12-07T14:55:08;13.57;;;9.23;;
11313;SDS011;5712;48.858;9.206;2022-12-07T14:57:39;14.80;;;8.87;;
11313;SDS011;5712;48.858;9.206;2022-12-07T15:00:08;14.13;;;8.03;;
11313;SDS011;5712;48.858;9.206;2022-12-07T15:02:41;13.90;;;8.63;;
11313;SDS011;5712;48.858;9.206;2022-12-07T15:05:07;13.20;;;8.70;;
11313;SDS011;5712;48.858;9.206;2022-12-07T15:07:34;13.23;;;8.50;;
11313;SDS011;5712;48.858;9.206;2022-12-07T15:10:01;10.70;;;7.37;;
11313;SDS011;5712;48.858;9.206;2022-12-07T15:12:42;13.27;;;7.57;;
11313;SDS011;5712;48.858;9.206;2022-12-07T15:15:14;12.70;;;7.53;;
11313;SDS011;5712;48.858;9.206;2022-12-07T15:17:50;12.37;;;7.77;;
11313;SDS011;5712;48.858;9.206;2022-12-07T15:20:36;11.50;;;7.67;;
11313;SDS011;5712;48.858;9.206;2022-12-07T15:23:02;10.17;;;7.33;;
11313;SDS011;5712;48.858;9.206;2022-12-07T15:25:29;11.83;;;7.83;;
11313;SDS011;5712;48.858;9.206;2022-12-07T15:27:55;11.90;;;8.50;;
11313;SDS011;5712;48.858;9.206;2022-12-07T15:30:22;14.63;;;9.17;;
11313;SDS011;5712;48.858;9.206;2022-12-07T15:32:50;13.53;;;8.93;;
11313;SDS011;5712;48.858;9.206;2022-12-07T15:35:17;11.77;;;8.33;;
11313;SDS011;5712;48.858;9.206;2022-12-07T15:37:47;13.17;;;9.23;;
11313;SDS011;5712;48.858;9.206;2022-12-07T15:40:13;13.57;;;8.77;;
11313;SDS011;5712;48.858;9.206;2022-12-07T15:42:40;11.80;;;8.10;;
11313;SDS011;5712;48.858;9.206;2022-12-07T15:45:07;14.53;;;8.73;;
11313;SDS011;5712;48.858;9.206;2022-12-07T15:47:34;12.50;;;8.50;;
11313;SDS011;5712;48.858;9.206;2022-12-07T15:50:04;13.37;;;8.63;;
11313;SDS011;5712;48.858;9.206;2022-12-07T15:52:33;15.67;;;8.33;;
11313;SDS011;5712;48.858;9.206;2022-12-07T15:55:00;13.20;;;8.60;;
11313;SDS011;5712;48.858;9.206;2022-12-07T15:57:30;11.03;;;8.17;;
11313;SDS011;5712;48.858;9.206;2022-12-07T15:59:57;12.30;;;8.80;;
11313;SDS011;5712;48.858;9.206;2022-12-07T16:02:51;13.07;;;8.27;;
11313;SDS011;5712;48.858;9.206;2022-12-07T16:05:18;13.57;;;8.93;;
11313;SDS011;5712;48.858;9.206;2022-12-07T16:07:45;16.07;;;9.67;;
11313;SDS011;5712;48.858;9.206;2022-12-07T16:10:12;14.17;;;9.63;;
11313;SDS011;5712;48.858;9.206;2022-12-07T16:12:38;13.93;;;9.07;;
11313;SDS011;5712;48.858;9.206;2022-12-07T16:15:05;12.40;;;8.20;;
11313;SDS011;5712;48.858;9.206;2022-12-07T16:17:33;13.77;;;8.97;;
11313;SDS011;5712;48.858;9.206;2022-12-07T16:19:59;13.23;;;9.00;;
11313;SDS011;5712;48.858;9.206;2022-12-07T16:22:27;14.90;;;9.87;;
11313;SDS011;5712;48.858;9.206;2022-12-07T16:24:54;14.83;;;9.50;;
11313;SDS011;5712;48.858;9.206;2022-12-07T16:27:21;12.30;;;8.67;;
11313;SDS011;5712;48.858;9.206;2022-12-07T16:29:47;13.60;;;8.97;;
11313;SDS011;5712;48.858;9.206;2022-12-07T16:32:14;13.27;;;8.70;;
11313;SDS011;5712;48.858;9.206;2022-12-07T16:34:40;14.20;;;8.83;;
11313;SDS011;5712;48.858;9.206;2022-12-07T16:37:07;13.27;;;9.37;;
11313;SDS011;5712;48.858;9.206;2022-12-07T16:39:34;13.63;;;8.27;;
11313;SDS011;5712;48.858;9.206;2022-12-07T16:42:01;15.33;;;8.93;;
11313;SDS011;5712;48.858;9.206;2022-12-07T16:44:28;15.50;;;9.07;;
11313;SDS011;5712;48.858;9.206;2022-12-07T16:46:55;12.53;;;8.80;;
11313;SDS011;5712;48.858;9.206;2022-12-07T16:49:22;13.00;;;8.13;;
11313;SDS011;5712;48.858;9.206;2022-12-07T16:51:49;11.57;;;7.73;;
11313;SDS011;5712;48.858;9.206;2022-12-07T16:54:16;16.33;;;9.07;;
11313;SDS011;5712;48.858;9.206;2022-12-07T16:56:43;14.40;;;8.73;;
11313;SDS011;5712;48.858;9.206;2022-12-07T16:59:10;12.60;;;8.60;;
11313;SDS011;5712;48.858;9.206;2022-12-07T17:01:36;11.43;;;8.23;;
11313;SDS011;5712;48.858;9.206;2022-12-07T17:04:03;12.70;;;8.10;;
11313;SDS011;5712;48.858;9.206;2022-12-07T17:06:30;13.93;;;8.77;;
11313;SDS011;5712;48.858;9.206;2022-12-07T17:08:57;12.60;;;7.43;;
11313;SDS011;5712;48.858;9.206;2022-12-07T17:11:25;13.27;;;8.50;;
11313;SDS011;5712;48.858;9.206;2022-12-07T17:13:54;11.60;;;7.60;;
11313;SDS011;5712;48.858;9.206;2022-12-07T17:16:38;11.53;;;7.53;;
11313;SDS011;5712;48.858;9.206;2022-12-07T17:19:05;11.53;;;7.57;;
11313;SDS011;5712;48.858;9.206;2022-12-07T17:21:33;11.67;;;7.67;;
11313;SDS011;5712;48.858;9.206;2022-12-07T17:24:00;10.30;;;7.17;;
11313;SDS011;5712;48.858;9.206;2022-12-07T17:26:27;10.97;;;7.37;;
11313;SDS011;5712;48.858;9.206;2022-12-07T17:28:56;10.27;;;6.40;;
11313;SDS011;5712;48.858;9.206;2022-12-07T17:31:23;10.37;;;7.10;;
11313;SDS011;5712;48.858;9.206;2022-12-07T17:33:50;10.27;;;6.97;;
11313;SDS011;5712;48.858;9.206;2022-12-07T17:36:17;11.40;;;7.67;;
11313;SDS011;5712;48.858;9.206;2022-12-07T17:38:45;12.37;;;7.73;;